createdAt,value
2022-08-10T00:01:54.285Z,23.82
2022-08-10T00:04:23.474Z,23.91
2022-08-10T00:06:52.684Z,23.90
2022-08-10T00:09:20.769Z,23.70
2022-08-10T00:11:48.507Z,24.07
2022-08-10T00:14:16.140Z,24.06
2022-08-10T00:16:43.546Z,23.98
2022-08-10T00:19:11.240Z,24.45
2022-08-10T00:21:38.620Z,23.78
2022-08-10T00:24:06.285Z,23.77
2022-08-10T00:27:58.594Z,24.05
2022-08-10T00:29:22.452Z,24.44
2022-08-10T00:31:58.037Z,24.68
2022-08-10T00:34:30.511Z,24.57
2022-08-10T00:36:59.091Z,24.34
2022-08-10T00:39:29.481Z,23.97
2022-08-10T00:42:01.780Z,24.03
2022-08-10T00:44:36.954Z,24.05
2022-08-10T00:47:04.930Z,23.30
2022-08-10T00:49:32.394Z,23.67
2022-08-10T00:52:00.094Z,23.86
2022-08-10T00:54:28.026Z,24.28
2022-08-10T00:57:17.805Z,24.07
2022-08-10T00:59:59.038Z,24.20
2022-08-10T01:02:29.622Z,23.80
2022-08-10T01:05:08.938Z,23.98
2022-08-10T01:07:51.207Z,23.65
2022-08-10T01:10:53.581Z,24.14
2022-08-10T01:13:27.236Z,24.18
2022-08-10T01:16:13.275Z,23.45
2022-08-10T01:19:00.843Z,23.13
2022-08-10T01:21:53.893Z,23.39
2022-08-10T01:24:36.532Z,23.27
2022-08-10T01:27:29.445Z,23.29
2022-08-10T01:30:02.361Z,23.19
2022-08-10T01:33:05.906Z,22.46
2022-08-10T01:35:38.428Z,22.92
2022-08-10T01:38:12.337Z,23.39
2022-08-10T01:40:45.343Z,23.18
2022-08-10T01:43:15.230Z,23.03
2022-08-10T01:45:44.966Z,22.95
2022-08-10T01:48:50.219Z,23.08
2022-08-10T01:51:31.078Z,23.10
2022-08-10T01:54:12.187Z,22.52
2022-08-10T01:56:44.276Z,22.99
2022-08-10T01:59:33.200Z,23.21
2022-08-10T02:02:07.668Z,23.13
2022-08-10T02:04:38.667Z,23.27
2022-08-10T02:07:08.564Z,23.29
2022-08-10T02:09:40.424Z,23.20
2022-08-10T02:12:09.923Z,23.04
2022-08-10T02:14:42.060Z,22.78
2022-08-10T02:17:59.290Z,23.07
2022-08-10T02:20:10.429Z,22.86
2022-08-10T02:22:39.356Z,23.13
2022-08-10T02:25:08.654Z,23.55
2022-08-10T02:27:36.450Z,23.41
2022-08-10T02:30:05.435Z,23.52
2022-08-10T02:32:37.925Z,23.25
2022-08-10T02:35:21.998Z,23.04
2022-08-10T02:37:51.796Z,23.28
2022-08-10T02:45:17.886Z,22.88
2022-08-10T02:45:27.813Z,23.10
2022-08-10T02:46:18.431Z,23.09
2022-08-10T02:49:09.161Z,23.30
2022-08-10T02:52:07.570Z,23.38
2022-08-10T02:54:36.200Z,23.05
2022-08-10T02:57:10.598Z,22.83
2022-08-10T02:59:43.384Z,23.05
2022-08-10T03:02:13.503Z,22.54
2022-08-10T03:04:55.117Z,23.22
2022-08-10T03:07:44.524Z,22.98
2022-08-10T03:10:22.673Z,22.80
2022-08-10T03:12:53.139Z,22.56
2022-08-10T03:15:22.313Z,22.73
2022-08-10T03:17:56.774Z,22.76
2022-08-10T03:20:37.247Z,22.17
2022-08-10T03:23:12.509Z,23.00
2022-08-10T03:25:40.716Z,22.83
2022-08-10T03:28:08.613Z,23.45
2022-08-10T03:30:36.296Z,22.52
2022-08-10T03:33:05.469Z,22.52
2022-08-10T03:35:33.027Z,22.44
2022-08-10T03:38:00.807Z,22.59
2022-08-10T03:40:32.247Z,22.07
2022-08-10T03:43:17.832Z,22.09
2022-08-10T03:45:55.701Z,21.71
2022-08-10T03:48:32.460Z,21.97
2022-08-10T03:51:14.713Z,22.23
2022-08-10T03:54:02.759Z,22.56
2022-08-10T03:56:32.474Z,22.86
2022-08-10T03:59:01.618Z,22.63
2022-08-10T04:02:43.270Z,22.63
2022-08-10T04:04:23.722Z,23.17
2022-08-10T04:06:56.238Z,23.00
2022-08-10T04:09:43.107Z,22.29
2022-08-10T04:12:14.891Z,22.72
2022-08-10T04:14:49.792Z,22.50
2022-08-10T04:17:56.726Z,22.74
2022-08-10T04:20:34.918Z,22.55
2022-08-10T04:23:11.626Z,22.40
2022-08-10T04:25:40.409Z,22.22
2022-08-10T04:28:08.810Z,22.47
2022-08-10T04:30:36.719Z,22.62
2022-08-10T04:33:05.810Z,22.45
2022-08-10T04:35:34.447Z,22.36
2022-08-10T04:38:03.577Z,22.08
2022-08-10T04:40:31.939Z,22.50
2022-08-10T04:43:10.822Z,22.51
2022-08-10T04:45:49.681Z,22.65
2022-08-10T04:48:43.530Z,22.70
2022-08-10T04:51:16.927Z,22.61
2022-08-10T04:54:07.214Z,22.83
2022-08-10T04:56:37.942Z,22.68
2022-08-10T04:59:07.452Z,22.57
2022-08-10T05:02:22.640Z,22.78
2022-08-10T05:04:35.487Z,22.72
2022-08-10T05:07:16.231Z,22.58
2022-08-10T05:10:02.276Z,22.57
2022-08-10T05:12:36.238Z,22.46
2022-08-10T05:15:09.776Z,22.32
2022-08-10T05:17:38.753Z,22.36
2022-08-10T05:20:10.173Z,22.19
2022-08-10T05:22:40.204Z,22.38
2022-08-10T05:25:13.701Z,22.33
2022-08-10T05:27:42.339Z,22.63
2022-08-10T05:30:13.785Z,22.19
2022-08-10T05:32:56.960Z,22.57
2022-08-10T05:35:28.593Z,22.77
2022-08-10T05:38:11.791Z,22.53
2022-08-10T05:40:47.268Z,22.36
2022-08-10T05:43:20.456Z,22.61
2022-08-10T05:46:16.614Z,22.58
2022-08-10T05:48:55.065Z,23.04
2022-08-10T05:51:26.547Z,23.09
2022-08-10T05:54:01.308Z,23.06
2022-08-10T05:56:56.894Z,23.08
2022-08-10T06:00:33.444Z,23.14
2022-08-10T06:02:35.289Z,23.55
2022-08-10T06:05:14.840Z,23.48
2022-08-10T06:07:52.909Z,23.21
2022-08-10T06:10:32.285Z,23.50
2022-08-10T06:13:29.634Z,23.49
2022-08-10T06:16:01.476Z,23.72
2022-08-10T06:18:29.213Z,23.75
2022-08-10T06:20:57.525Z,23.98
2022-08-10T06:23:26.504Z,23.88
2022-08-10T06:26:09.962Z,23.86
2022-08-10T06:28:58.283Z,24.13
2022-08-10T06:31:47.813Z,24.27
2022-08-10T06:34:33.192Z,24.55
2022-08-10T06:37:03.399Z,24.30
2022-08-10T06:39:34.574Z,24.57
2022-08-10T06:42:18.718Z,24.82
2022-08-10T06:44:57.285Z,24.67
2022-08-10T06:47:56.890Z,25.06
2022-08-10T06:50:45.433Z,25.53
2022-08-10T06:53:22.191Z,26.07
2022-08-10T06:56:12.532Z,26.65
2022-08-10T06:58:49.961Z,27.39
2022-08-10T07:01:21.703Z,28.10
2022-08-10T07:04:03.589Z,28.53
2022-08-10T07:06:32.089Z,29.64
2022-08-10T07:09:01.954Z,29.15
2022-08-10T07:11:30.354Z,29.56
2022-08-10T07:14:15.500Z,29.88
2022-08-10T07:16:46.838Z,31.38
2022-08-10T07:19:15.023Z,31.09
2022-08-10T07:21:44.082Z,31.04
2022-08-10T07:24:13.230Z,31.00
2022-08-10T07:26:47.766Z,30.95
2022-08-10T07:29:52.918Z,31.16
2022-08-10T07:32:05.637Z,31.68
2022-08-10T07:34:33.483Z,31.63
2022-08-10T07:37:06.971Z,31.75
2022-08-10T07:39:57.831Z,32.36
2022-08-10T07:42:31.088Z,32.36
2022-08-10T07:44:59.559Z,32.99
2022-08-10T07:47:54.397Z,31.86
2022-08-10T07:50:24.855Z,32.03
2022-08-10T07:52:54.521Z,33.07
2022-08-10T07:56:05.593Z,33.95
2022-08-10T07:58:10.529Z,33.35
2022-08-10T08:00:39.402Z,33.09
2022-08-10T08:03:09.376Z,33.47
2022-08-10T08:05:57.940Z,34.05
2022-08-10T08:08:26.424Z,33.44
2022-08-10T08:10:58.263Z,34.56
2022-08-10T08:13:26.567Z,34.32
2022-08-10T08:16:17.751Z,35.05
2022-08-10T08:18:58.128Z,35.80
2022-08-10T08:24:15.030Z,35.92
2022-08-10T08:24:32.617Z,35.78
2022-08-10T08:27:02.715Z,36.90
2022-08-10T08:29:41.431Z,35.43
2022-08-10T08:32:09.763Z,33.89
2022-08-10T08:34:39.983Z,34.66
2022-08-10T08:37:09.524Z,33.83
2022-08-10T08:39:37.599Z,33.64
2022-08-10T08:42:23.995Z,33.46
2022-08-10T08:45:07.053Z,33.56
2022-08-10T08:48:03.653Z,33.65
2022-08-10T08:50:40.550Z,33.44
2022-08-10T08:53:21.171Z,32.42
2022-08-10T08:56:03.498Z,31.98
2022-08-10T08:58:57.037Z,32.50
2022-08-10T09:01:41.942Z,31.40
2022-08-10T09:04:31.388Z,31.27
2022-08-10T09:07:56.264Z,31.76
2022-08-10T09:10:21.378Z,31.64
2022-08-10T09:13:00.733Z,31.43
2022-08-10T09:15:39.463Z,31.51
2022-08-10T09:18:44.954Z,31.60
2022-08-10T09:21:19.872Z,30.85
2022-08-10T09:24:05.784Z,30.72
2022-08-10T09:26:41.796Z,30.38
2022-08-10T09:29:17.474Z,30.96
2022-08-10T09:33:06.030Z,30.67
2022-08-10T09:36:23.356Z,30.88
2022-08-10T09:38:04.195Z,30.74
2022-08-10T09:40:59.334Z,31.73
2022-08-10T09:43:49.666Z,31.74
2022-08-10T09:46:34.413Z,31.35
2022-08-10T09:49:25.042Z,31.85
2022-08-10T09:52:15.295Z,31.75
2022-08-10T09:55:00.546Z,31.37
2022-08-10T09:57:46.804Z,31.22
2022-08-10T10:00:18.168Z,31.70
2022-08-10T10:03:04.748Z,32.10
2022-08-10T10:05:50.249Z,32.03
2022-08-10T10:08:43.013Z,32.49
2022-08-10T10:11:27.338Z,31.44
2022-08-10T10:14:20.106Z,31.35
2022-08-10T10:17:12.820Z,31.59
2022-08-10T10:20:04.519Z,31.86
2022-08-10T10:22:50.449Z,32.01
2022-08-10T10:25:22.245Z,32.08
2022-08-10T10:28:06.492Z,31.27
2022-08-10T10:30:42.641Z,31.55
2022-08-10T10:33:15.931Z,31.58
2022-08-10T10:35:55.086Z,31.98
2022-08-10T10:38:26.932Z,31.98
2022-08-10T10:41:21.009Z,32.14
2022-08-10T10:44:07.420Z,32.59
2022-08-10T10:46:50.271Z,33.45
2022-08-10T10:49:43.172Z,33.52
2022-08-10T10:52:37.802Z,33.28
2022-08-10T10:55:18.303Z,33.24
2022-08-10T10:58:07.630Z,33.03
2022-08-10T11:00:42.730Z,33.46
2022-08-10T11:03:19.571Z,33.54
2022-08-10T11:05:55.720Z,34.07
2022-08-10T11:08:27.588Z,33.83
2022-08-10T11:11:03.771Z,33.86
2022-08-10T11:14:26.345Z,32.87
2022-08-10T11:16:44.543Z,32.75
2022-08-10T11:20:02.361Z,33.06
2022-08-10T11:22:22.324Z,33.34
2022-08-10T11:24:58.243Z,33.30
2022-08-10T11:27:25.566Z,33.21
2022-08-10T11:29:53.205Z,32.87
2022-08-10T11:32:35.773Z,33.20
2022-08-10T11:35:12.704Z,33.04
2022-08-10T11:38:31.303Z,33.21
2022-08-10T11:40:46.688Z,33.28
2022-08-10T11:43:26.265Z,32.40
2022-08-10T11:46:09.585Z,32.05
2022-08-10T11:49:02.105Z,32.52
2022-08-10T11:51:40.725Z,32.40
2022-08-10T11:54:12.174Z,33.01
2022-08-10T11:56:50.235Z,33.72
2022-08-10T11:59:57.968Z,33.69
2022-08-10T12:02:41.735Z,33.80
2022-08-10T12:05:12.602Z,33.64
2022-08-10T12:10:03.727Z,33.61
2022-08-10T12:10:31.726Z,33.06
2022-08-10T12:13:10.127Z,33.27
2022-08-10T12:15:46.379Z,33.07
2022-08-10T12:18:36.610Z,32.91
2022-08-10T12:21:09.095Z,33.33
2022-08-10T12:23:46.452Z,33.13
2022-08-10T12:27:03.584Z,33.38
2022-08-10T12:29:54.423Z,33.22
2022-08-10T12:32:27.190Z,33.31
2022-08-10T12:35:04.559Z,33.17
2022-08-10T12:38:03.409Z,33.36
2022-08-10T12:40:36.138Z,33.15
2022-08-10T12:44:07.519Z,33.13
2022-08-10T12:46:30.812Z,33.16
2022-08-10T12:49:13.035Z,32.67
2022-08-10T12:51:49.771Z,32.54
2022-08-10T12:54:32.234Z,32.93
2022-08-10T12:57:05.186Z,32.48
2022-08-10T12:59:34.063Z,33.00
2022-08-10T13:02:24.949Z,32.96
2022-08-10T13:04:54.902Z,33.07
2022-08-10T13:08:18.541Z,33.36
2022-08-10T13:10:24.350Z,33.43
2022-08-10T13:12:54.645Z,33.30
2022-08-10T13:15:48.230Z,32.52
2022-08-10T13:18:18.634Z,32.53
2022-08-10T13:21:00.676Z,32.65
2022-08-10T13:23:29.376Z,32.41
2022-08-10T13:25:58.645Z,32.14
2022-08-10T13:28:39.691Z,32.39
2022-08-10T13:31:17.017Z,31.54
2022-08-10T13:34:05.583Z,31.74
2022-08-10T13:36:40.552Z,31.78
2022-08-10T13:39:08.588Z,31.89
2022-08-10T13:41:39.261Z,31.81
2022-08-10T13:44:08.592Z,32.15
2022-08-10T13:46:40.490Z,32.30
2022-08-10T13:49:09.828Z,32.25
2022-08-10T13:51:54.372Z,32.25
2022-08-10T13:54:28.436Z,32.31
2022-08-10T13:56:56.678Z,32.55
2022-08-10T14:00:33.998Z,32.28
2022-08-10T14:02:24.106Z,32.19
2022-08-10T14:04:53.012Z,32.57
2022-08-10T14:07:20.518Z,32.10
2022-08-10T14:09:48.903Z,31.77
2022-08-10T14:12:17.158Z,31.77
2022-08-10T14:14:45.490Z,31.83
2022-08-10T14:17:22.110Z,31.99
2022-08-10T14:19:51.578Z,32.65
2022-08-10T14:22:33.692Z,33.13
2022-08-10T14:25:13.103Z,33.04
2022-08-10T14:28:03.044Z,32.74
2022-08-10T14:30:32.453Z,32.84
2022-08-10T14:33:04.383Z,32.31
2022-08-10T14:36:19.053Z,32.70
2022-08-10T14:38:28.420Z,33.25
2022-08-10T14:40:57.688Z,31.85
2022-08-10T14:43:29.500Z,32.04
2022-08-10T14:46:01.812Z,31.59
2022-08-10T14:48:34.980Z,32.03
2022-08-10T14:51:06.444Z,32.25
2022-08-10T14:53:36.660Z,32.10
2022-08-10T14:56:15.690Z,32.48
2022-08-10T14:59:05.943Z,32.20
2022-08-10T15:01:59.926Z,32.56
2022-08-10T15:04:28.384Z,31.95
2022-08-10T15:07:23.360Z,31.42
2022-08-10T15:09:59.898Z,31.89
2022-08-10T15:12:35.780Z,31.57
2022-08-10T15:15:06.289Z,31.51
2022-08-10T15:17:36.047Z,31.59
2022-08-10T15:20:13.419Z,31.67
2022-08-10T15:22:46.393Z,31.46
2022-08-10T15:25:19.266Z,31.80
2022-08-10T15:27:55.916Z,31.63
2022-08-10T15:30:31.785Z,31.89
2022-08-10T15:33:57.353Z,31.44
2022-08-10T15:36:39.011Z,31.86
2022-08-10T15:40:20.450Z,30.95
2022-08-10T15:42:04.498Z,31.24
2022-08-10T15:44:41.255Z,31.58
2022-08-10T15:47:23.219Z,31.78
2022-08-10T15:50:05.837Z,31.22
2022-08-10T15:53:02.017Z,30.89
2022-08-10T15:55:43.375Z,30.98
2022-08-10T15:58:19.980Z,31.32
2022-08-10T16:02:03.588Z,31.08
2022-08-10T16:04:08.261Z,31.32
2022-08-10T16:06:43.699Z,31.38
2022-08-10T16:10:10.770Z,31.14
2022-08-10T16:12:15.081Z,31.35
2022-08-10T16:14:46.686Z,31.40
2022-08-10T16:17:14.299Z,31.49
2022-08-10T16:19:52.874Z,31.22
2022-08-10T16:22:35.883Z,31.63
2022-08-10T16:25:12.437Z,31.83
2022-08-10T16:27:41.323Z,31.36
2022-08-10T16:30:09.012Z,30.95
2022-08-10T16:32:38.447Z,30.93
2022-08-10T16:35:09.180Z,31.03
2022-08-10T16:37:57.987Z,31.24
2022-08-10T16:40:28.422Z,31.34
2022-08-10T16:42:56.567Z,31.42
2022-08-10T16:45:31.791Z,31.06
2022-08-10T16:48:00.415Z,31.44
2022-08-10T16:50:31.822Z,31.43
2022-08-10T16:53:02.281Z,31.45
2022-08-10T16:55:48.195Z,31.19
2022-08-10T16:58:25.369Z,31.07
2022-08-10T17:00:57.805Z,30.84
2022-08-10T17:04:05.728Z,31.12
2022-08-10T17:06:23.638Z,31.35
2022-08-10T17:08:53.528Z,30.89
2022-08-10T17:11:23.562Z,30.85
2022-08-10T17:13:56.000Z,30.73
2022-08-10T17:16:24.600Z,30.52
2022-08-10T17:18:52.762Z,30.28
2022-08-10T17:21:22.442Z,30.53
2022-08-10T17:23:52.090Z,30.56
2022-08-10T17:26:23.889Z,30.40
2022-08-10T17:29:17.185Z,30.16
2022-08-10T17:32:06.408Z,29.87
2022-08-10T17:34:38.836Z,29.65
2022-08-10T17:37:13.733Z,29.72
2022-08-10T17:40:11.899Z,29.77
2022-08-10T17:42:40.117Z,29.74
2022-08-10T17:45:16.359Z,29.67
2022-08-10T17:48:08.181Z,29.73
2022-08-10T17:50:37.664Z,29.48
2022-08-10T17:53:14.641Z,29.09
2022-08-10T17:55:43.824Z,28.91
2022-08-10T17:58:20.116Z,28.78
2022-08-10T18:00:51.383Z,28.66
2022-08-10T18:03:25.670Z,29.00
2022-08-10T18:06:04.272Z,29.08
2022-08-10T18:08:39.809Z,28.94
2022-08-10T18:11:12.228Z,29.02
2022-08-10T18:13:55.689Z,28.93
2022-08-10T18:16:26.773Z,28.60
2022-08-10T18:19:05.481Z,28.56
2022-08-10T18:21:34.116Z,28.69
2022-08-10T18:24:06.767Z,28.75
2022-08-10T18:26:36.554Z,28.57
2022-08-10T18:29:10.987Z,28.53
2022-08-10T18:31:41.666Z,28.73
2022-08-10T18:34:12.900Z,28.78
2022-08-10T18:36:44.194Z,28.69
2022-08-10T18:39:14.810Z,28.68
2022-08-10T18:42:04.681Z,28.67
2022-08-10T18:44:36.251Z,28.49
2022-08-10T18:47:10.318Z,28.55
2022-08-10T18:49:37.808Z,28.57
2022-08-10T18:52:09.658Z,27.30
2022-08-10T18:54:44.953Z,26.54
2022-08-10T18:57:28.421Z,25.83
2022-08-10T19:00:08.323Z,25.67
2022-08-10T19:03:21.601Z,25.68
2022-08-10T19:05:54.465Z,25.78
2022-08-10T19:08:48.790Z,26.42
2022-08-10T19:11:57.521Z,25.88
2022-08-10T19:14:38.151Z,25.25
2022-08-10T19:17:20.487Z,25.19
2022-08-10T19:19:52.571Z,24.67
2022-08-10T19:22:26.224Z,24.74
2022-08-10T19:25:00.262Z,24.65
2022-08-10T19:27:57.691Z,24.26
2022-08-10T19:31:03.723Z,24.45
2022-08-10T19:34:11.506Z,24.55
2022-08-10T19:36:52.886Z,24.50
2022-08-10T19:39:29.154Z,24.44
2022-08-10T19:42:20.915Z,24.78
2022-08-10T19:46:01.867Z,24.32
2022-08-10T19:48:44.259Z,24.05
2022-08-10T19:51:35.685Z,23.75
2022-08-10T19:54:14.800Z,23.55
2022-08-10T19:57:07.874Z,24.00
2022-08-10T20:00:15.099Z,23.79
2022-08-10T20:03:00.207Z,24.07
2022-08-10T20:05:33.118Z,23.92
2022-08-10T20:08:28.128Z,23.60
2022-08-10T20:11:04.680Z,23.40
2022-08-10T20:13:31.995Z,23.14
2022-08-10T20:16:22.891Z,23.16
2022-08-10T20:19:01.569Z,24.01
2022-08-10T20:21:34.417Z,23.86
2022-08-10T20:24:11.219Z,23.92
2022-08-10T20:26:46.957Z,24.25
2022-08-10T20:29:58.965Z,24.11
2022-08-10T20:32:25.069Z,23.31
2022-08-10T20:35:08.112Z,23.14
2022-08-10T20:38:19.950Z,23.35
2022-08-10T20:41:08.734Z,22.87
2022-08-10T20:43:41.174Z,23.57
2022-08-10T20:46:15.163Z,24.04
2022-08-10T20:49:03.775Z,23.96
2022-08-10T20:51:57.321Z,24.48
2022-08-10T20:54:41.600Z,24.29
2022-08-10T20:57:56.835Z,24.32
2022-08-10T21:00:23.229Z,24.43
2022-08-10T21:02:59.483Z,24.48
2022-08-10T21:05:59.806Z,24.72
2022-08-10T21:08:54.711Z,24.66
2022-08-10T21:11:47.933Z,25.04
2022-08-10T21:14:34.583Z,24.98
2022-08-10T21:17:23.039Z,25.21
2022-08-10T21:20:08.019Z,25.27
2022-08-10T21:22:42.531Z,25.18
2022-08-10T21:25:19.812Z,24.99
2022-08-10T21:28:13.924Z,25.08
2022-08-10T21:30:59.684Z,24.93
2022-08-10T21:33:59.262Z,24.91
2022-08-10T21:36:32.149Z,24.84
2022-08-10T21:39:13.934Z,24.95
2022-08-10T21:42:14.825Z,24.90
2022-08-10T21:45:47.530Z,25.34
2022-08-10T21:48:45.867Z,25.39
2022-08-10T21:52:09.154Z,25.18
2022-08-10T21:55:03.011Z,25.11
2022-08-10T21:58:07.821Z,25.04
2022-08-10T22:04:06.644Z,25.14
2022-08-10T22:06:57.952Z,24.97
2022-08-10T22:09:49.691Z,25.14
2022-08-10T22:12:39.484Z,25.09
2022-08-10T22:16:05.390Z,25.05
2022-08-10T22:18:53.810Z,25.03
2022-08-10T22:22:27.183Z,25.27
2022-08-10T22:25:33.562Z,25.14
2022-08-10T22:28:20.030Z,25.01
2022-08-10T22:34:52.252Z,25.00
2022-08-10T22:38:16.955Z,25.02
2022-08-10T22:41:04.446Z,25.04
2022-08-10T22:43:51.925Z,25.08
2022-08-10T22:46:42.089Z,25.19
2022-08-10T22:49:09.573Z,25.07
2022-08-10T22:51:47.173Z,25.14
2022-08-10T22:54:41.295Z,24.69
2022-08-10T22:57:32.829Z,24.67
2022-08-10T23:00:14.424Z,24.75
2022-08-10T23:03:12.992Z,24.79
2022-08-10T23:05:56.118Z,24.90
2022-08-10T23:08:30.442Z,24.59
2022-08-10T23:11:02.484Z,24.49
2022-08-10T23:13:36.288Z,24.64
2022-08-10T23:16:27.437Z,24.10
2022-08-10T23:19:11.606Z,24.03
2022-08-10T23:22:06.071Z,23.96
2022-08-10T23:24:43.980Z,24.00
2022-08-10T23:27:37.763Z,23.81
2022-08-10T23:30:09.551Z,23.78
2022-08-10T23:32:44.416Z,23.45
2022-08-10T23:36:29.403Z,22.77
2022-08-10T23:38:09.686Z,22.66
2022-08-10T23:40:38.250Z,22.75
2022-08-10T23:43:06.813Z,23.34
2022-08-10T23:45:53.221Z,23.32
2022-08-10T23:48:25.885Z,22.45
2022-08-10T23:50:59.660Z,22.95
2022-08-10T23:53:35.499Z,22.70
2022-08-10T23:56:12.026Z,22.62
2022-08-10T23:58:48.298Z,23.02
